Terminal Aerodrome Forecast
Issued by NWS

Home | Current Version | Previous Version | Text Only | Print | Product List | Glossary On
Versions: 1 2 3 4 5 6 7 8 9 10 11 12 13
000
FTUS45 KRIW 271100
TAFWRL
TAF
KWRL 271124Z 2712/2812 VRB04KT P6SM VCFG FEW005 SCT090
     FM271400 VRB06KT P6SM FEW020 SCT080
     FM272100 VRB10G16KT P6SM VCSH SCT040 BKN080
     FM280300 VRB06KT P6SM VCSH SCT050 BKN080=

USA.gov is the U.S. government's official web portal to all federal, state and local government web resources and services.